sensor_id;sensor_type;location;lat;lon;timestamp;pressure;altitude;pressure_sealevel;temperature
18713;BMP280;9485;49.386;8.674;2024-01-07T00:00:11;99962.13;;;7.29
18713;BMP280;9485;49.386;8.674;2024-01-07T00:05:35;99963.38;;;7.28
18713;BMP280;9485;49.386;8.674;2024-01-07T00:10:56;99974.78;;;7.25
18713;BMP280;9485;49.386;8.674;2024-01-07T00:16:17;99966.28;;;7.19
18713;BMP280;9485;49.386;8.674;2024-01-07T00:21:39;99969.06;;;7.19
18713;BMP280;9485;49.386;8.674;2024-01-07T00:26:59;99968.81;;;7.17
18713;BMP280;9485;49.386;8.674;2024-01-07T00:32:20;99977.22;;;7.17
18713;BMP280;9485;49.386;8.674;2024-01-07T00:37:42;99971.31;;;7.15
18713;BMP280;9485;49.386;8.674;2024-01-07T00:43:03;99964.63;;;7.13
18713;BMP280;9485;49.386;8.674;2024-01-07T00:48:23;99967.63;;;7.09
18713;BMP280;9485;49.386;8.674;2024-01-07T00:53:46;99976.53;;;7.08
18713;BMP280;9485;49.386;8.674;2024-01-07T00:59:07;99979.31;;;7.08
18713;BMP280;9485;49.386;8.674;2024-01-07T01:04:27;99977.50;;;7.05
18713;BMP280;9485;49.386;8.674;2024-01-07T01:09:49;99980.00;;;7.03
18713;BMP280;9485;49.386;8.674;2024-01-07T01:15:10;99994.03;;;7.03
18713;BMP280;9485;49.386;8.674;2024-01-07T01:20:31;99999.38;;;7.01
18713;BMP280;9485;49.386;8.674;2024-01-07T01:25:53;99996.84;;;7.03
18713;BMP280;9485;49.386;8.674;2024-01-07T01:31:14;100007.59;;;7.04
18713;BMP280;9485;49.386;8.674;2024-01-07T01:36:35;100009.94;;;7.06
18713;BMP280;9485;49.386;8.674;2024-01-07T01:41:57;100008.19;;;7.08
18713;BMP280;9485;49.386;8.674;2024-01-07T01:47:18;100012.25;;;7.07
18713;BMP280;9485;49.386;8.674;2024-01-07T01:52:38;100012.25;;;7.07
18713;BMP280;9485;49.386;8.674;2024-01-07T01:58:02;100010.41;;;7.04
18713;BMP280;9485;49.386;8.674;2024-01-07T02:03:24;100017.00;;;7.01
18713;BMP280;9485;49.386;8.674;2024-01-07T02:08:45;100014.88;;;6.96
18713;BMP280;9485;49.386;8.674;2024-01-07T02:14:07;100019.38;;;6.94
18713;BMP280;9485;49.386;8.674;2024-01-07T02:19:28;100022.38;;;6.90
18713;BMP280;9485;49.386;8.674;2024-01-07T02:24:49;100031.28;;;6.89
18713;BMP280;9485;49.386;8.674;2024-01-07T02:30:11;100032.25;;;6.86
18713;BMP280;9485;49.386;8.674;2024-01-07T02:35:31;100029.16;;;6.84
18713;BMP280;9485;49.386;8.674;2024-01-07T02:40:53;100028.38;;;6.83
18713;BMP280;9485;49.386;8.674;2024-01-07T02:46:14;100029.47;;;6.86
18713;BMP280;9485;49.386;8.674;2024-01-07T02:51:35;100028.97;;;6.87
18713;BMP280;9485;49.386;8.674;2024-01-07T02:56:56;100024.44;;;6.90
18713;BMP280;9485;49.386;8.674;2024-01-07T03:02:17;100017.88;;;6.93
18713;BMP280;9485;49.386;8.674;2024-01-07T03:07:38;100016.94;;;6.87
18713;BMP280;9485;49.386;8.674;2024-01-07T03:13:01;100026.75;;;6.91
18713;BMP280;9485;49.386;8.674;2024-01-07T03:18:22;100040.31;;;6.93
18713;BMP280;9485;49.386;8.674;2024-01-07T03:23:43;100038.56;;;6.95
18713;BMP280;9485;49.386;8.674;2024-01-07T03:29:04;100042.94;;;6.96
18713;BMP280;9485;49.386;8.674;2024-01-07T03:34:25;100043.13;;;6.93
18713;BMP280;9485;49.386;8.674;2024-01-07T03:39:47;100040.69;;;7.00
18713;BMP280;9485;49.386;8.674;2024-01-07T03:45:09;100038.66;;;7.01
18713;BMP280;9485;49.386;8.674;2024-01-07T03:50:30;100045.06;;;7.01
18713;BMP280;9485;49.386;8.674;2024-01-07T03:55:50;100047.09;;;7.01
18713;BMP280;9485;49.386;8.674;2024-01-07T04:01:17;100048.81;;;6.98
18713;BMP280;9485;49.386;8.674;2024-01-07T04:06:37;100057.91;;;6.93
18713;BMP280;9485;49.386;8.674;2024-01-07T04:11:58;100059.34;;;6.89
18713;BMP280;9485;49.386;8.674;2024-01-07T04:17:20;100064.47;;;6.90
18713;BMP280;9485;49.386;8.674;2024-01-07T04:22:40;100069.03;;;6.88
18713;BMP280;9485;49.386;8.674;2024-01-07T04:28:01;100072.13;;;6.90
18713;BMP280;9485;49.386;8.674;2024-01-07T04:33:23;100075.25;;;6.92
18713;BMP280;9485;49.386;8.674;2024-01-07T04:38:44;100078.50;;;6.90
18713;BMP280;9485;49.386;8.674;2024-01-07T04:44:04;100082.88;;;6.91
18713;BMP280;9485;49.386;8.674;2024-01-07T04:49:26;100089.28;;;6.92
18713;BMP280;9485;49.386;8.674;2024-01-07T04:54:47;100091.28;;;6.91
18713;BMP280;9485;49.386;8.674;2024-01-07T05:00:08;100094.88;;;6.92
18713;BMP280;9485;49.386;8.674;2024-01-07T05:05:31;100099.53;;;6.95
18713;BMP280;9485;49.386;8.674;2024-01-07T05:10:51;100101.41;;;6.98
18713;BMP280;9485;49.386;8.674;2024-01-07T05:16:18;100106.53;;;6.99
18713;BMP280;9485;49.386;8.674;2024-01-07T05:21:40;100110.56;;;6.98
18713;BMP280;9485;49.386;8.674;2024-01-07T05:27:01;100113.88;;;6.97
18713;BMP280;9485;49.386;8.674;2024-01-07T05:32:22;100119.50;;;6.97
18713;BMP280;9485;49.386;8.674;2024-01-07T05:37:43;100127.72;;;7.00
18713;BMP280;9485;49.386;8.674;2024-01-07T05:43:04;100122.88;;;7.01
18713;BMP280;9485;49.386;8.674;2024-01-07T05:48:24;100136.28;;;7.06
18713;BMP280;9485;49.386;8.674;2024-01-07T05:53:47;100134.22;;;7.06
18713;BMP280;9485;49.386;8.674;2024-01-07T05:59:08;100136.53;;;7.08
18713;BMP280;9485;49.386;8.674;2024-01-07T06:04:28;100148.56;;;7.08
18713;BMP280;9485;49.386;8.674;2024-01-07T06:09:50;100151.69;;;7.10
18713;BMP280;9485;49.386;8.674;2024-01-07T06:15:11;100150.13;;;7.09
18713;BMP280;9485;49.386;8.674;2024-01-07T06:20:31;100154.94;;;7.09
18713;BMP280;9485;49.386;8.674;2024-01-07T06:25:53;100159.94;;;7.14
18713;BMP280;9485;49.386;8.674;2024-01-07T06:31:14;100170.97;;;7.17
18713;BMP280;9485;49.386;8.674;2024-01-07T06:36:35;100177.34;;;7.18
18713;BMP280;9485;49.386;8.674;2024-01-07T06:41:56;100184.84;;;7.21
18713;BMP280;9485;49.386;8.674;2024-01-07T06:47:17;100194.16;;;7.27
18713;BMP280;9485;49.386;8.674;2024-01-07T06:52:37;100200.34;;;7.31
18713;BMP280;9485;49.386;8.674;2024-01-07T06:57:59;100199.41;;;7.34
18713;BMP280;9485;49.386;8.674;2024-01-07T07:03:20;100212.38;;;7.31
18713;BMP280;9485;49.386;8.674;2024-01-07T07:08:40;100216.72;;;7.32
18713;BMP280;9485;49.386;8.674;2024-01-07T07:14:02;100219.06;;;7.34
18713;BMP280;9485;49.386;8.674;2024-01-07T07:19:23;100221.25;;;7.30
18713;BMP280;9485;49.386;8.674;2024-01-07T07:24:43;100241.41;;;7.28
18713;BMP280;9485;49.386;8.674;2024-01-07T07:30:07;100240.03;;;7.24
18713;BMP280;9485;49.386;8.674;2024-01-07T07:35:27;100238.28;;;7.26
18713;BMP280;9485;49.386;8.674;2024-01-07T07:40:48;100250.00;;;7.25
18713;BMP280;9485;49.386;8.674;2024-01-07T07:46:13;100258.06;;;7.32
18713;BMP280;9485;49.386;8.674;2024-01-07T07:51:35;100262.75;;;7.35
18713;BMP280;9485;49.386;8.674;2024-01-07T07:56:55;100261.00;;;7.37
18713;BMP280;9485;49.386;8.674;2024-01-07T08:02:17;100273.81;;;7.38
18713;BMP280;9485;49.386;8.674;2024-01-07T08:07:38;100276.31;;;7.36
18713;BMP280;9485;49.386;8.674;2024-01-07T08:12:58;100281.13;;;7.36
18713;BMP280;9485;49.386;8.674;2024-01-07T08:18:20;100284.72;;;7.36
18713;BMP280;9485;49.386;8.674;2024-01-07T08:23:41;100285.22;;;7.35
18713;BMP280;9485;49.386;8.674;2024-01-07T08:29:02;100302.66;;;7.39
18713;BMP280;9485;49.386;8.674;2024-01-07T08:34:24;100293.56;;;7.43
18713;BMP280;9485;49.386;8.674;2024-01-07T08:39:45;100301.72;;;7.42
18713;BMP280;9485;49.386;8.674;2024-01-07T08:45:07;100313.84;;;7.47
18713;BMP280;9485;49.386;8.674;2024-01-07T08:50:29;100321.91;;;7.54
18713;BMP280;9485;49.386;8.674;2024-01-07T08:55:50;100327.34;;;7.58
18713;BMP280;9485;49.386;8.674;2024-01-07T09:01:10;100336.06;;;7.60
18713;BMP280;9485;49.386;8.674;2024-01-07T09:06:34;100347.13;;;7.63
18713;BMP280;9485;49.386;8.674;2024-01-07T09:11:55;100349.47;;;7.65
18713;BMP280;9485;49.386;8.674;2024-01-07T09:17:16;100348.69;;;7.64
18713;BMP280;9485;49.386;8.674;2024-01-07T09:22:39;100360.06;;;7.70
18713;BMP280;9485;49.386;8.674;2024-01-07T09:28:01;100360.06;;;7.70
18713;BMP280;9485;49.386;8.674;2024-01-07T09:33:22;100371.47;;;7.66
18713;BMP280;9485;49.386;8.674;2024-01-07T09:38:44;100383.06;;;7.59
18713;BMP280;9485;49.386;8.674;2024-01-07T09:44:07;100385.56;;;7.57
18713;BMP280;9485;49.386;8.674;2024-01-07T09:49:28;100383.66;;;7.63
18713;BMP280;9485;49.386;8.674;2024-01-07T09:54:58;100396.28;;;7.68
18713;BMP280;9485;49.386;8.674;2024-01-07T10:00:20;100386.06;;;7.79
18713;BMP280;9485;49.386;8.674;2024-01-07T10:05:41;100386.91;;;7.94
18713;BMP280;9485;49.386;8.674;2024-01-07T10:11:03;100394.28;;;7.92
18713;BMP280;9485;49.386;8.674;2024-01-07T10:16:24;100405.69;;;7.88
18713;BMP280;9485;49.386;8.674;2024-01-07T10:21:44;100402.44;;;7.81
18713;BMP280;9485;49.386;8.674;2024-01-07T10:27:07;100404.38;;;7.75
18713;BMP280;9485;49.386;8.674;2024-01-07T10:32:28;100411.13;;;7.68
18713;BMP280;9485;49.386;8.674;2024-01-07T10:37:49;100416.63;;;7.63
18713;BMP280;9485;49.386;8.674;2024-01-07T10:43:13;100421.16;;;7.60
18713;BMP280;9485;49.386;8.674;2024-01-07T10:48:38;100425.16;;;7.45
18713;BMP280;9485;49.386;8.674;2024-01-07T10:53:59;100435.44;;;7.39
18713;BMP280;9485;49.386;8.674;2024-01-07T10:59:22;100433.28;;;7.43
18713;BMP280;9485;49.386;8.674;2024-01-07T11:04:52;100426.13;;;7.65
18713;BMP280;9485;49.386;8.674;2024-01-07T11:10:20;100424.66;;;8.02
18713;BMP280;9485;49.386;8.674;2024-01-07T11:15:52;100415.88;;;8.32
18713;BMP280;9485;49.386;8.674;2024-01-07T11:21:21;100419.88;;;8.55
18713;BMP280;9485;49.386;8.674;2024-01-07T11:26:44;100421.19;;;8.68
18713;BMP280;9485;49.386;8.674;2024-01-07T11:32:07;100424.19;;;8.79
18713;BMP280;9485;49.386;8.674;2024-01-07T11:37:27;100426.13;;;8.73
18713;BMP280;9485;49.386;8.674;2024-01-07T11:42:48;100423.19;;;8.53
18713;BMP280;9485;49.386;8.674;2024-01-07T11:48:12;100424.25;;;8.41
18713;BMP280;9485;49.386;8.674;2024-01-07T11:53:33;100437.97;;;8.25
18713;BMP280;9485;49.386;8.674;2024-01-07T11:58:54;100442.59;;;8.05
18713;BMP280;9485;49.386;8.674;2024-01-07T12:04:17;100434.31;;;7.87
18713;BMP280;9485;49.386;8.674;2024-01-07T12:09:38;100436.72;;;7.70
18713;BMP280;9485;49.386;8.674;2024-01-07T12:14:59;100444.59;;;7.57
18713;BMP280;9485;49.386;8.674;2024-01-07T12:20:21;100443.72;;;7.43
18713;BMP280;9485;49.386;8.674;2024-01-07T12:25:42;100453.28;;;7.36
18713;BMP280;9485;49.386;8.674;2024-01-07T12:31:03;100450.28;;;7.40
18713;BMP280;9485;49.386;8.674;2024-01-07T12:36:25;100453.59;;;7.29
18713;BMP280;9485;49.386;8.674;2024-01-07T12:41:46;100468.75;;;7.23
18713;BMP280;9485;49.386;8.674;2024-01-07T12:47:07;100461.44;;;7.16
18713;BMP280;9485;49.386;8.674;2024-01-07T12:52:29;100459.41;;;7.17
18713;BMP280;9485;49.386;8.674;2024-01-07T12:57:50;100472.22;;;7.18
18713;BMP280;9485;49.386;8.674;2024-01-07T13:03:11;100471.13;;;7.06
18713;BMP280;9485;49.386;8.674;2024-01-07T13:08:38;100483.63;;;7.05
18713;BMP280;9485;49.386;8.674;2024-01-07T13:13:58;100496.72;;;6.99
18713;BMP280;9485;49.386;8.674;2024-01-07T13:19:21;100500.94;;;6.95
18713;BMP280;9485;49.386;8.674;2024-01-07T13:24:43;100499.09;;;6.92
18713;BMP280;9485;49.386;8.674;2024-01-07T13:30:05;100502.50;;;6.87
18713;BMP280;9485;49.386;8.674;2024-01-07T13:35:26;100500.81;;;6.89
18713;BMP280;9485;49.386;8.674;2024-01-07T13:40:48;100502.66;;;6.83
18713;BMP280;9485;49.386;8.674;2024-01-07T13:46:09;100516.88;;;6.89
18713;BMP280;9485;49.386;8.674;2024-01-07T13:51:30;100520.91;;;6.88
18713;BMP280;9485;49.386;8.674;2024-01-07T13:56:51;100519.66;;;6.89
18713;BMP280;9485;49.386;8.674;2024-01-07T14:02:13;100527.78;;;6.78
18713;BMP280;9485;49.386;8.674;2024-01-07T14:07:38;100536.97;;;6.78
18713;BMP280;9485;49.386;8.674;2024-01-07T14:13:01;100549.59;;;6.74
18713;BMP280;9485;49.386;8.674;2024-01-07T14:18:22;100553.03;;;6.69
18713;BMP280;9485;49.386;8.674;2024-01-07T14:23:43;100551.47;;;6.59
18713;BMP280;9485;49.386;8.674;2024-01-07T14:29:05;100568.09;;;6.36
18713;BMP280;9485;49.386;8.674;2024-01-07T14:34:25;100561.09;;;6.40
18713;BMP280;9485;49.386;8.674;2024-01-07T14:39:46;100583.50;;;6.31
18713;BMP280;9485;49.386;8.674;2024-01-07T14:45:08;100595.69;;;6.28
18713;BMP280;9485;49.386;8.674;2024-01-07T14:50:29;100596.16;;;6.27
18713;BMP280;9485;49.386;8.674;2024-01-07T14:55:49;100605.47;;;6.24
18713;BMP280;9485;49.386;8.674;2024-01-07T15:01:11;100616.50;;;6.18
18713;BMP280;9485;49.386;8.674;2024-01-07T15:06:40;100617.59;;;6.12
18713;BMP280;9485;49.386;8.674;2024-01-07T15:12:01;100620.00;;;6.01
18713;BMP280;9485;49.386;8.674;2024-01-07T15:17:23;100640.09;;;5.99
18713;BMP280;9485;49.386;8.674;2024-01-07T15:22:44;100637.25;;;5.91
18713;BMP280;9485;49.386;8.674;2024-01-07T15:28:05;100645.16;;;5.83
18713;BMP280;9485;49.386;8.674;2024-01-07T15:33:27;100650.91;;;5.80
18713;BMP280;9485;49.386;8.674;2024-01-07T15:38:48;100646.53;;;5.79
18713;BMP280;9485;49.386;8.674;2024-01-07T15:44:08;100670.44;;;5.71
18713;BMP280;9485;49.386;8.674;2024-01-07T15:49:30;100670.63;;;5.55
18713;BMP280;9485;49.386;8.674;2024-01-07T15:54:51;100681.09;;;5.42
18713;BMP280;9485;49.386;8.674;2024-01-07T16:00:13;100694.13;;;5.36
18713;BMP280;9485;49.386;8.674;2024-01-07T16:05:35;100696.84;;;5.27
18713;BMP280;9485;49.386;8.674;2024-01-07T16:10:57;100714.81;;;5.17
18713;BMP280;9485;49.386;8.674;2024-01-07T16:16:17;100726.91;;;5.14
18713;BMP280;9485;49.386;8.674;2024-01-07T16:21:39;100733.09;;;5.09
18713;BMP280;9485;49.386;8.674;2024-01-07T16:27:00;100745.28;;;5.03
18713;BMP280;9485;49.386;8.674;2024-01-07T16:32:21;100763.78;;;5.00
18713;BMP280;9485;49.386;8.674;2024-01-07T16:37:43;100769.59;;;4.93
18713;BMP280;9485;49.386;8.674;2024-01-07T16:43:03;100777.34;;;4.89
18713;BMP280;9485;49.386;8.674;2024-01-07T16:48:24;100783.94;;;4.83
18713;BMP280;9485;49.386;8.674;2024-01-07T16:53:46;100793.38;;;4.76
18713;BMP280;9485;49.386;8.674;2024-01-07T16:59:07;100794.38;;;4.70
18713;BMP280;9485;49.386;8.674;2024-01-07T17:04:28;100792.91;;;4.65
18713;BMP280;9485;49.386;8.674;2024-01-07T17:09:49;100803.44;;;4.61
18713;BMP280;9485;49.386;8.674;2024-01-07T17:15:10;100804.06;;;4.53
18713;BMP280;9485;49.386;8.674;2024-01-07T17:20:32;100804.63;;;4.48
18713;BMP280;9485;49.386;8.674;2024-01-07T17:25:56;100815.59;;;4.43
18713;BMP280;9485;49.386;8.674;2024-01-07T17:31:17;100821.72;;;4.38
18713;BMP280;9485;49.386;8.674;2024-01-07T17:36:38;100829.00;;;4.35
18713;BMP280;9485;49.386;8.674;2024-01-07T17:42:00;100832.78;;;4.29
18713;BMP280;9485;49.386;8.674;2024-01-07T17:47:25;100854.38;;;4.28
18713;BMP280;9485;49.386;8.674;2024-01-07T17:52:45;100855.34;;;4.22
18713;BMP280;9485;49.386;8.674;2024-01-07T17:58:07;100867.44;;;4.19
18713;BMP280;9485;49.386;8.674;2024-01-07T18:03:28;100869.88;;;4.17
18713;BMP280;9485;49.386;8.674;2024-01-07T18:08:48;100866.06;;;4.11
18713;BMP280;9485;49.386;8.674;2024-01-07T18:14:11;100883.78;;;4.04
18713;BMP280;9485;49.386;8.674;2024-01-07T18:19:34;100896.41;;;3.96
18713;BMP280;9485;49.386;8.674;2024-01-07T18:24:54;100902.63;;;3.88
18713;BMP280;9485;49.386;8.674;2024-01-07T18:30:16;100915.38;;;3.89
18713;BMP280;9485;49.386;8.674;2024-01-07T18:35:37;100904.91;;;3.93
18713;BMP280;9485;49.386;8.674;2024-01-07T18:40:58;100906.44;;;3.94
18713;BMP280;9485;49.386;8.674;2024-01-07T18:46:19;100912.94;;;3.91
18713;BMP280;9485;49.386;8.674;2024-01-07T18:51:40;100923.56;;;3.96
18713;BMP280;9485;49.386;8.674;2024-01-07T18:57:03;100927.56;;;3.95
18713;BMP280;9485;49.386;8.674;2024-01-07T19:02:26;100932.38;;;3.94
18713;BMP280;9485;49.386;8.674;2024-01-07T19:07:46;100936.16;;;3.88
18713;BMP280;9485;49.386;8.674;2024-01-07T19:13:06;100949.44;;;3.84
18713;BMP280;9485;49.386;8.674;2024-01-07T19:18:29;100957.38;;;3.85
18713;BMP280;9485;49.386;8.674;2024-01-07T19:23:52;100952.75;;;3.79
18713;BMP280;9485;49.386;8.674;2024-01-07T19:29:12;100971.50;;;3.78
18713;BMP280;9485;49.386;8.674;2024-01-07T19:34:34;100966.91;;;3.72
18713;BMP280;9485;49.386;8.674;2024-01-07T19:39:55;100973.72;;;3.71
18713;BMP280;9485;49.386;8.674;2024-01-07T19:45:17;100983.03;;;3.65
18713;BMP280;9485;49.386;8.674;2024-01-07T19:50:42;100977.81;;;3.67
18713;BMP280;9485;49.386;8.674;2024-01-07T19:56:05;100991.84;;;3.63
18713;BMP280;9485;49.386;8.674;2024-01-07T20:01:27;100987.13;;;3.60
18713;BMP280;9485;49.386;8.674;2024-01-07T20:06:49;100988.72;;;3.61
18713;BMP280;9485;49.386;8.674;2024-01-07T20:12:10;100987.66;;;3.55
18713;BMP280;9485;49.386;8.674;2024-01-07T20:17:31;101000.56;;;3.49
18713;BMP280;9485;49.386;8.674;2024-01-07T20:22:52;101010.34;;;3.41
18713;BMP280;9485;49.386;8.674;2024-01-07T20:28:13;101017.50;;;3.42
18713;BMP280;9485;49.386;8.674;2024-01-07T20:33:34;101009.72;;;3.50
18713;BMP280;9485;49.386;8.674;2024-01-07T20:38:56;101015.31;;;3.50
18713;BMP280;9485;49.386;8.674;2024-01-07T20:44:16;101026.56;;;3.46
18713;BMP280;9485;49.386;8.674;2024-01-07T20:49:37;101023.84;;;3.43
18713;BMP280;9485;49.386;8.674;2024-01-07T20:54:59;101024.72;;;3.40
18713;BMP280;9485;49.386;8.674;2024-01-07T21:00:20;101022.78;;;3.37
18713;BMP280;9485;49.386;8.674;2024-01-07T21:05:41;101028.81;;;3.35
18713;BMP280;9485;49.386;8.674;2024-01-07T21:11:05;101032.91;;;3.31
18713;BMP280;9485;49.386;8.674;2024-01-07T21:16:25;101045.81;;;3.25
18713;BMP280;9485;49.386;8.674;2024-01-07T21:21:45;101056.53;;;3.26
18713;BMP280;9485;49.386;8.674;2024-01-07T21:27:07;101062.09;;;3.26
18713;BMP280;9485;49.386;8.674;2024-01-07T21:32:28;101059.91;;;3.18
18713;BMP280;9485;49.386;8.674;2024-01-07T21:37:51;101066.78;;;3.13
18713;BMP280;9485;49.386;8.674;2024-01-07T21:43:13;101063.69;;;3.08
18713;BMP280;9485;49.386;8.674;2024-01-07T21:48:35;101062.25;;;3.00
18713;BMP280;9485;49.386;8.674;2024-01-07T21:53:56;101062.19;;;3.03
18713;BMP280;9485;49.386;8.674;2024-01-07T21:59:18;101070.94;;;3.05
18713;BMP280;9485;49.386;8.674;2024-01-07T22:04:39;101077.88;;;2.97
18713;BMP280;9485;49.386;8.674;2024-01-07T22:09:59;101071.44;;;3.00
18713;BMP280;9485;49.386;8.674;2024-01-07T22:15:21;101077.88;;;2.97
18713;BMP280;9485;49.386;8.674;2024-01-07T22:20:42;101076.81;;;2.92
18713;BMP280;9485;49.386;8.674;2024-01-07T22:26:03;101081.53;;;2.95
18713;BMP280;9485;49.386;8.674;2024-01-07T22:31:24;101089.47;;;2.96
18713;BMP280;9485;49.386;8.674;2024-01-07T22:36:45;101089.91;;;2.95
18713;BMP280;9485;49.386;8.674;2024-01-07T22:42:05;101088.41;;;2.90
18713;BMP280;9485;49.386;8.674;2024-01-07T22:47:27;101097.53;;;2.91
18713;BMP280;9485;49.386;8.674;2024-01-07T22:52:48;101086.75;;;2.93
18713;BMP280;9485;49.386;8.674;2024-01-07T22:58:08;101091.41;;;2.99
18713;BMP280;9485;49.386;8.674;2024-01-07T23:03:30;101090.16;;;3.00
18713;BMP280;9485;49.386;8.674;2024-01-07T23:08:51;101098.97;;;2.98
18713;BMP280;9485;49.386;8.674;2024-01-07T23:14:11;101089.47;;;2.96
18713;BMP280;9485;49.386;8.674;2024-01-07T23:19:33;101090.69;;;2.95
18713;BMP280;9485;49.386;8.674;2024-01-07T23:24:54;101092.69;;;2.95
18713;BMP280;9485;49.386;8.674;2024-01-07T23:30:15;101098.13;;;3.01
18713;BMP280;9485;49.386;8.674;2024-01-07T23:35:37;101097.25;;;3.04
18713;BMP280;9485;49.386;8.674;2024-01-07T23:40:57;101099.63;;;3.06
18713;BMP280;9485;49.386;8.674;2024-01-07T23:46:18;101100.03;;;3.04
18713;BMP280;9485;49.386;8.674;2024-01-07T23:51:40;101097.63;;;3.06
18713;BMP280;9485;49.386;8.674;2024-01-07T23:57:00;101102.00;;;3.07
